createdAt,value
2019-04-01T00:00:37.801Z,102473.87
2019-04-01T00:03:07.206Z,102476.47
2019-04-01T00:05:35.503Z,102478.56
2019-04-01T00:08:03.860Z,102474.91
2019-04-01T00:10:32.151Z,102476.16
2019-04-01T00:13:00.427Z,102474.91
2019-04-01T00:15:28.721Z,102465.80
2019-04-01T00:17:57.064Z,102466.64
2019-04-01T00:20:25.365Z,102461.51
2019-04-01T00:22:53.777Z,102466.84
2019-04-01T00:25:22.212Z,102472.12
2019-04-01T00:27:50.494Z,102474.71
2019-04-01T00:30:18.908Z,102473.59
2019-04-01T00:32:47.241Z,102464.49
2019-04-01T00:35:15.533Z,102475.02
2019-04-01T00:37:43.934Z,102465.42
2019-04-01T00:40:13.844Z,102471.00
2019-04-01T00:42:44.039Z,102469.66
2019-04-01T00:45:13.981Z,102466.45
2019-04-01T00:47:42.377Z,102463.99
2019-04-01T00:50:10.644Z,102465.64
2019-04-01T00:52:39.138Z,102472.03
2019-04-01T00:55:07.402Z,102466.50
2019-04-01T00:57:35.679Z,102464.36
2019-04-01T01:00:04.891Z,102458.52
2019-04-01T01:02:33.331Z,102460.94
2019-04-01T01:05:01.633Z,102459.60
2019-04-01T01:07:29.904Z,102450.76
2019-04-01T01:09:58.296Z,102455.58
2019-04-01T01:12:26.689Z,102447.16
2019-04-01T01:14:55.519Z,102452.02
2019-04-01T01:17:25.151Z,102450.11
2019-04-01T01:19:53.432Z,102452.28
2019-04-01T01:22:22.206Z,102439.62
2019-04-01T01:24:52.050Z,102445.41
2019-04-01T01:27:20.328Z,102450.46
2019-04-01T01:29:48.600Z,102448.31
2019-04-01T01:32:16.905Z,102446.67
2019-04-01T01:34:45.261Z,102437.42
2019-04-01T01:37:13.532Z,102439.48
2019-04-01T01:39:41.848Z,102439.70
2019-04-01T01:42:10.132Z,102434.36
2019-04-01T01:44:38.515Z,102436.22
2019-04-01T01:47:07.062Z,102439.31
2019-04-01T01:49:35.394Z,102440.06
2019-04-01T01:52:03.780Z,102432.53
2019-04-01T01:54:32.836Z,102429.05
2019-04-01T01:57:01.146Z,102430.70
2019-04-01T01:59:29.743Z,102421.32
2019-04-01T02:01:58.045Z,102414.62
2019-04-01T02:04:26.344Z,102419.14
2019-04-01T02:06:54.677Z,102423.91
2019-04-01T02:09:23.462Z,102410.44
2019-04-01T02:11:51.906Z,102407.14
2019-04-01T02:14:20.225Z,102411.69
2019-04-01T02:16:48.638Z,102411.07
2019-04-01T02:19:16.915Z,102404.42
2019-04-01T02:21:45.281Z,102402.59
2019-04-01T02:24:14.336Z,102397.45
2019-04-01T02:26:42.615Z,102396.12
2019-04-01T02:29:10.951Z,102387.25
2019-04-01T02:31:39.794Z,102392.30
2019-04-01T02:34:08.208Z,102390.67
2019-04-01T02:36:37.071Z,102386.88
2019-04-01T02:39:07.292Z,102382.03
2019-04-01T02:41:35.710Z,102381.22
2019-04-01T02:44:03.970Z,102388.55
2019-04-01T02:46:32.332Z,102379.58
2019-04-01T02:49:01.013Z,102379.17
2019-04-01T02:51:29.494Z,102381.77
2019-04-01T02:53:57.769Z,102380.47
2019-04-01T02:56:26.535Z,102377.70
2019-04-01T02:58:54.975Z,102379.97
2019-04-01T03:01:23.249Z,102377.52
2019-04-01T03:03:51.528Z,102369.18
2019-04-01T03:06:19.834Z,102372.57
2019-04-01T03:08:48.267Z,102365.88
2019-04-01T03:11:16.568Z,102358.16
2019-04-01T03:13:44.920Z,102356.16
2019-04-01T03:16:13.425Z,102355.75
2019-04-01T03:18:41.764Z,102356.56
2019-04-01T03:21:10.042Z,102345.50
2019-04-01T03:23:38.356Z,102352.68
2019-04-01T03:26:06.633Z,102354.67
2019-04-01T03:28:35.107Z,102350.94
2019-04-01T03:31:03.461Z,102352.63
2019-04-01T03:33:31.839Z,102357.30
2019-04-01T03:36:00.132Z,102353.50
2019-04-01T03:38:28.408Z,102356.09
2019-04-01T03:40:56.729Z,102349.98
2019-04-01T03:43:25.858Z,102346.73
2019-04-01T03:45:54.136Z,102344.33
2019-04-01T03:48:22.452Z,102337.77
2019-04-01T03:50:50.745Z,102343.56
2019-04-01T03:53:19.115Z,102337.81
2019-04-01T03:55:47.452Z,102337.00
2019-04-01T03:58:15.876Z,102334.23
2019-04-01T04:00:44.318Z,102333.52
2019-04-01T04:03:12.595Z,102331.37
2019-04-01T04:05:40.897Z,102328.48
2019-04-01T04:08:09.227Z,102333.12
2019-04-01T04:10:37.561Z,102333.83
2019-04-01T04:13:05.834Z,102332.03
2019-04-01T04:15:34.692Z,102334.70
2019-04-01T04:18:02.972Z,102331.72
2019-04-01T04:20:31.354Z,102326.78
2019-04-01T04:22:59.658Z,102325.75
2019-04-01T04:25:28.215Z,102319.60
2019-04-01T04:27:56.535Z,102317.27
2019-04-01T04:30:24.813Z,102321.77
2019-04-01T04:32:53.140Z,102323.64
2019-04-01T04:35:21.459Z,102315.75
2019-04-01T04:37:49.754Z,102316.05
2019-04-01T04:40:18.043Z,102313.91
2019-04-01T04:42:46.663Z,102313.72
2019-04-01T04:45:14.957Z,102313.94
2019-04-01T04:47:43.256Z,102312.60
2019-04-01T04:50:11.608Z,102308.59
2019-04-01T04:52:40.013Z,102310.03
2019-04-01T04:55:08.298Z,102311.67
2019-04-01T04:57:37.350Z,102314.03
2019-04-01T05:00:06.896Z,102312.91
2019-04-01T05:02:35.647Z,102312.08
2019-04-01T05:05:05.679Z,102318.95
2019-04-01T05:07:33.940Z,102316.70
2019-04-01T05:10:02.260Z,102320.19
2019-04-01T05:12:30.590Z,102315.40
2019-04-01T05:14:58.938Z,102314.06
2019-04-01T05:17:27.282Z,102314.06
2019-04-01T05:19:55.638Z,102314.28
2019-04-01T05:22:23.935Z,102318.50
2019-04-01T05:24:52.242Z,102316.55
2019-04-01T05:27:20.907Z,102316.85
2019-04-01T05:29:49.357Z,102317.75
2019-04-01T05:32:18.451Z,102324.06
2019-04-01T05:34:46.750Z,102321.58
2019-04-01T05:37:16.233Z,102326.32
2019-04-01T05:39:44.925Z,102323.12
2019-04-01T05:42:13.711Z,102325.09
2019-04-01T05:44:42.902Z,102332.47
2019-04-01T05:47:11.494Z,102338.45
2019-04-01T05:49:39.793Z,102336.08
2019-04-01T05:52:08.166Z,102339.25
2019-04-01T05:54:37.243Z,102340.80
2019-04-01T05:57:05.620Z,102339.47
2019-04-01T05:59:34.038Z,102345.71
2019-04-01T06:02:02.425Z,102343.67
2019-04-01T06:04:30.660Z,102342.64
2019-04-01T06:06:58.979Z,102348.98
2019-04-01T06:09:27.256Z,102349.45
2019-04-01T06:11:55.677Z,102354.09
2019-04-01T06:14:23.969Z,102353.26
2019-04-01T06:16:52.341Z,102350.05
2019-04-01T06:19:20.650Z,102357.02
2019-04-01T06:21:49.118Z,102355.44
2019-04-01T06:24:17.442Z,102358.17
2019-04-01T06:26:45.719Z,102354.75
2019-04-01T06:29:13.994Z,102355.21
2019-04-01T06:31:42.317Z,102354.95
2019-04-01T06:34:10.649Z,102354.86
2019-04-01T06:36:39.699Z,102353.98
2019-04-01T06:39:07.979Z,102358.56
2019-04-01T06:41:37.101Z,102349.96
2019-04-01T06:44:05.396Z,102355.27
2019-04-01T06:46:33.715Z,102352.32
2019-04-01T06:49:02.034Z,102352.36
2019-04-01T06:51:30.308Z,102352.25
2019-04-01T06:53:58.605Z,102350.05
2019-04-01T06:56:26.910Z,102356.15
2019-04-01T06:58:55.472Z,102354.64
2019-04-01T07:01:23.928Z,102359.11
2019-04-01T07:03:52.232Z,102356.90
2019-04-01T07:06:20.551Z,102358.33
2019-04-01T07:08:48.867Z,102359.00
2019-04-01T07:11:17.348Z,102358.34
2019-04-01T07:13:45.650Z,102353.86
2019-04-01T07:16:15.833Z,102345.12
2019-04-01T07:18:44.099Z,102344.52
2019-04-01T07:21:12.453Z,102347.02
2019-04-01T07:23:40.729Z,102344.95
2019-04-01T07:26:09.028Z,102347.91
2019-04-01T07:28:37.300Z,102345.25
2019-04-01T07:31:05.704Z,102337.80
2019-04-01T07:33:34.052Z,102342.32
2019-04-01T07:36:02.418Z,102345.29
2019-04-01T07:38:31.446Z,102346.44
2019-04-01T07:40:59.922Z,102348.90
2019-04-01T07:43:29.115Z,102347.02
2019-04-01T07:45:59.999Z,102344.83
2019-04-01T07:48:27.647Z,102345.41
2019-04-01T07:50:56.683Z,102347.88
2019-04-01T07:53:24.965Z,102345.33
2019-04-01T07:55:53.413Z,102339.43
2019-04-01T07:58:21.697Z,102335.41
2019-04-01T08:00:49.967Z,102338.61
2019-04-01T08:03:19.054Z,102330.47
2019-04-01T08:05:47.388Z,102331.56
2019-04-01T08:08:15.766Z,102323.17
2019-04-01T08:10:44.559Z,102323.17
2019-04-01T08:13:12.850Z,102324.75
2019-04-01T08:15:41.104Z,102318.23
2019-04-01T08:18:09.408Z,102318.23
2019-04-01T08:20:37.713Z,102322.17
2019-04-01T08:23:06.055Z,102311.75
2019-04-01T08:25:34.317Z,102323.08
2019-04-01T08:28:02.589Z,102321.64
2019-04-01T08:30:31.013Z,102323.50
2019-04-01T08:32:59.293Z,102321.50
2019-04-01T08:35:27.566Z,102316.12
2019-04-01T08:37:55.943Z,102317.56
2019-04-01T08:40:24.214Z,102315.05
2019-04-01T08:42:52.592Z,102312.19
2019-04-01T08:45:20.953Z,102316.91
2019-04-01T08:47:49.250Z,102308.60
2019-04-01T08:50:17.530Z,102307.63
2019-04-01T08:52:45.925Z,102304.47
2019-04-01T08:55:14.259Z,102305.62
2019-04-01T08:57:42.628Z,102298.65
2019-04-01T09:00:11.096Z,102298.70
2019-04-01T09:02:39.599Z,102297.69
2019-04-01T09:05:07.976Z,102298.27
2019-04-01T09:07:37.213Z,102294.50
2019-04-01T09:10:06.341Z,102297.00
2019-04-01T09:12:34.758Z,102287.31
2019-04-01T09:15:03.584Z,102288.75
2019-04-01T09:17:31.919Z,102286.60
2019-04-01T09:20:00.450Z,102284.21
2019-04-01T09:22:28.991Z,102283.42
2019-04-01T09:24:57.409Z,102277.17
2019-04-01T09:27:25.687Z,102283.67
2019-04-01T09:29:54.033Z,102278.27
2019-04-01T09:32:22.407Z,102273.09
2019-04-01T09:34:50.688Z,102283.66
2019-04-01T09:37:18.995Z,102277.10
2019-04-01T09:39:47.298Z,102277.66
2019-04-01T09:42:15.596Z,102271.95
2019-04-01T09:44:43.887Z,102268.67
2019-04-01T09:47:12.313Z,102264.30
2019-04-01T09:49:40.585Z,102261.31
2019-04-01T09:52:09.439Z,102255.60
2019-04-01T09:54:37.764Z,102263.72
2019-04-01T09:57:17.268Z,102260.16
2019-04-01T09:59:36.063Z,102253.02
2019-04-01T10:02:04.492Z,102244.53
2019-04-01T10:04:32.985Z,102248.36
2019-04-01T10:07:01.256Z,102251.00
2019-04-01T10:09:29.564Z,102245.84
2019-04-01T10:11:57.876Z,102247.14
2019-04-01T10:14:26.302Z,102235.59
2019-04-01T10:16:55.350Z,102227.84
2019-04-01T10:19:23.715Z,102225.27
2019-04-01T10:21:52.276Z,102222.72
2019-04-01T10:24:20.556Z,102213.08
2019-04-01T10:26:48.901Z,102217.67
2019-04-01T10:29:17.282Z,102208.07
2019-04-01T10:31:45.608Z,102202.77
2019-04-01T10:34:14.532Z,102201.98
2019-04-01T10:36:42.873Z,102200.56
2019-04-01T10:39:11.344Z,102190.31
2019-04-01T10:41:39.696Z,102191.35
2019-04-01T10:44:07.969Z,102180.89
2019-04-01T10:46:36.446Z,102178.87
2019-04-01T10:49:04.833Z,102177.47
2019-04-01T10:51:33.121Z,102172.55
2019-04-01T10:54:01.616Z,102173.95
2019-04-01T10:56:29.861Z,102160.84
2019-04-01T10:58:58.723Z,102154.00
2019-04-01T11:01:27.118Z,102161.89
2019-04-01T11:03:55.838Z,102155.95
2019-04-01T11:06:24.215Z,102149.58
2019-04-01T11:08:52.786Z,102147.22
2019-04-01T11:11:21.160Z,102141.84
2019-04-01T11:13:51.710Z,102141.06
2019-04-01T11:16:19.463Z,102136.19
2019-04-01T11:18:47.790Z,102133.08
2019-04-01T11:21:16.095Z,102131.29
2019-04-01T11:23:44.381Z,102137.60
2019-04-01T11:26:12.679Z,102134.22
2019-04-01T11:28:41.040Z,102128.78
2019-04-01T11:31:09.757Z,102133.23
2019-04-01T11:33:38.024Z,102127.89
2019-04-01T11:36:06.326Z,102119.58
2019-04-01T11:38:34.742Z,102121.46
2019-04-01T11:41:03.019Z,102122.80
2019-04-01T11:43:35.268Z,102122.37
2019-04-01T11:46:01.825Z,102119.19
2019-04-01T11:48:30.992Z,102115.08
2019-04-01T11:50:59.339Z,102110.20
2019-04-01T11:53:27.735Z,102100.03
2019-04-01T11:55:56.090Z,102102.64
2019-04-01T11:58:24.396Z,102099.45
2019-04-01T12:00:52.676Z,102095.42
2019-04-01T12:03:21.104Z,102081.05
2019-04-01T12:05:49.395Z,102073.77
2019-04-01T12:08:17.820Z,102070.93
2019-04-01T12:10:46.115Z,102065.02
2019-04-01T12:13:14.740Z,102069.22
2019-04-01T12:15:43.970Z,102058.59
2019-04-01T12:18:12.251Z,102050.13
2019-04-01T12:20:40.577Z,102041.41
2019-04-01T12:23:08.871Z,102032.88
2019-04-01T12:25:38.457Z,102030.08
2019-04-01T12:28:08.215Z,102020.23
2019-04-01T12:30:36.496Z,102029.80
2019-04-01T12:33:04.914Z,102035.20
2019-04-01T12:35:33.194Z,102033.44
2019-04-01T12:38:01.476Z,102028.59
2019-04-01T12:40:29.973Z,102017.40
2019-04-01T12:42:58.350Z,102011.77
2019-04-01T12:45:26.739Z,102015.20
2019-04-01T12:47:55.070Z,102008.12
2019-04-01T12:50:23.362Z,101999.13
2019-04-01T12:52:51.675Z,101993.49
2019-04-01T12:55:20.052Z,101992.33
2019-04-01T12:57:48.799Z,101987.79
2019-04-01T13:00:19.361Z,101985.42
2019-04-01T13:02:47.642Z,101976.78
2019-04-01T13:05:16.791Z,101967.68
2019-04-01T13:07:45.985Z,101972.70
2019-04-01T13:10:14.294Z,101965.55
2019-04-01T13:12:43.199Z,101957.53
2019-04-01T13:15:12.745Z,101953.58
2019-04-01T13:17:41.708Z,101944.22
2019-04-01T13:20:10.018Z,101941.80
2019-04-01T13:22:38.430Z,101943.48
2019-04-01T13:25:06.709Z,101934.06
2019-04-01T13:27:35.137Z,101926.34
2019-04-01T13:30:04.506Z,101933.42
2019-04-01T13:32:32.789Z,101918.35
2019-04-01T13:35:01.083Z,101917.83
2019-04-01T13:37:29.385Z,101914.66
2019-04-01T13:39:57.671Z,101912.80
2019-04-01T13:42:26.841Z,101901.02
2019-04-01T13:44:55.167Z,101899.32
2019-04-01T13:47:23.494Z,101887.69
2019-04-01T13:49:51.812Z,101878.94
2019-04-01T13:52:20.183Z,101885.56
2019-04-01T13:54:48.489Z,101870.05
2019-04-01T13:57:17.937Z,101874.77
2019-04-01T13:59:49.519Z,101868.79
2019-04-01T14:02:16.390Z,101869.66
2019-04-01T14:04:44.809Z,101861.41
2019-04-01T14:07:13.093Z,101851.80
2019-04-01T14:09:41.397Z,101854.47
2019-04-01T14:12:09.748Z,101849.91
2019-04-01T14:14:38.160Z,101851.77
2019-04-01T14:17:06.441Z,101839.65
2019-04-01T14:19:34.726Z,101834.43
2019-04-01T14:22:03.038Z,101831.41
2019-04-01T14:24:31.317Z,101821.58
2019-04-01T14:26:59.616Z,101812.58
2019-04-01T14:29:27.893Z,101806.11
2019-04-01T14:31:56.335Z,101795.59
2019-04-01T14:34:24.621Z,101800.98
2019-04-01T14:36:52.919Z,101809.39
2019-04-01T14:39:21.231Z,101804.83
2019-04-01T14:41:49.585Z,101795.02
2019-04-01T14:44:17.988Z,101787.37
2019-04-01T14:46:46.266Z,101789.87
2019-04-01T14:49:15.766Z,101797.97
2019-04-01T14:51:44.161Z,101781.98
2019-04-01T14:54:12.497Z,101775.95
2019-04-01T14:56:40.806Z,101781.78
2019-04-01T14:59:09.083Z,101771.53
2019-04-01T15:01:37.392Z,101769.52
2019-04-01T15:04:05.699Z,101772.62
2019-04-01T15:06:34.102Z,101765.75
2019-04-01T15:09:02.405Z,101754.81
2019-04-01T15:11:30.742Z,101753.25
2019-04-01T15:14:00.228Z,101753.74
2019-04-01T15:16:29.757Z,101748.88
2019-04-01T15:18:58.034Z,101745.56
2019-04-01T15:21:26.334Z,101743.16
2019-04-01T15:23:54.726Z,101742.45
2019-04-01T15:26:23.074Z,101739.63
2019-04-01T15:28:51.462Z,101731.58
2019-04-01T15:31:19.845Z,101726.83
2019-04-01T15:33:48.114Z,101726.41
2019-04-01T15:36:17.124Z,101712.59
2019-04-01T15:38:45.411Z,101709.47
2019-04-01T15:41:13.812Z,101701.25
2019-04-01T15:43:42.132Z,101695.77
2019-04-01T15:46:10.410Z,101688.86
2019-04-01T15:48:38.994Z,101689.53
2019-04-01T15:51:07.913Z,101686.64
2019-04-01T15:53:36.679Z,101684.90
2019-04-01T15:56:05.631Z,101666.66
2019-04-01T15:58:33.961Z,101672.59
2019-04-01T16:01:02.245Z,101672.86
2019-04-01T16:03:33.573Z,101665.30
2019-04-01T16:06:03.038Z,101658.33
2019-04-01T16:08:31.748Z,101655.13
2019-04-01T16:11:00.558Z,101651.34
2019-04-01T16:13:28.987Z,101642.16
2019-04-01T16:15:57.273Z,101639.81
2019-04-01T16:18:26.303Z,101638.56
2019-04-01T16:20:55.271Z,101641.19
2019-04-01T16:23:23.915Z,101631.12
2019-04-01T16:25:52.261Z,101630.86
2019-04-01T16:28:20.569Z,101629.63
2019-04-01T16:30:48.905Z,101630.27
2019-04-01T16:33:17.304Z,101624.66
2019-04-01T16:35:46.088Z,101626.28
2019-04-01T16:38:14.598Z,101618.66
2019-04-01T16:40:42.885Z,101611.34
2019-04-01T16:43:11.170Z,101613.97
2019-04-01T16:45:39.504Z,101606.77
2019-04-01T16:48:08.477Z,101605.64
2019-04-01T16:50:37.813Z,101596.93
2019-04-01T16:53:06.115Z,101602.38
2019-04-01T16:55:36.073Z,101597.42
2019-04-01T16:58:04.679Z,101597.38
2019-04-01T17:00:32.972Z,101597.38
2019-04-01T17:03:01.365Z,101587.34
2019-04-01T17:05:34.092Z,101589.25
2019-04-01T17:08:02.673Z,101593.81
2019-04-01T17:10:30.974Z,101593.60
2019-04-01T17:13:01.377Z,101583.81
2019-04-01T17:15:29.494Z,101579.30
2019-04-01T17:17:57.770Z,101583.91
2019-04-01T17:20:26.125Z,101584.33
2019-04-01T17:22:54.539Z,101586.62
2019-04-01T17:25:22.880Z,101591.11
2019-04-01T17:27:51.929Z,101590.39
2019-04-01T17:30:20.300Z,101580.52
2019-04-01T17:32:48.781Z,101579.83
2019-04-01T17:35:17.062Z,101581.59
2019-04-01T17:37:45.369Z,101574.33
2019-04-01T17:40:16.884Z,101572.55
2019-04-01T17:42:43.915Z,101573.39
2019-04-01T17:45:24.667Z,101571.72
2019-04-01T17:47:53.763Z,101566.33
2019-04-01T17:50:22.043Z,101565.86
2019-04-01T17:52:50.346Z,101564.84
2019-04-01T17:55:18.619Z,101559.39
2019-04-01T17:57:47.013Z,101558.87
2019-04-01T18:00:17.597Z,101552.73
2019-04-01T18:02:45.902Z,101553.61
2019-04-01T18:05:15.960Z,101557.58
2019-04-01T18:07:45.202Z,101551.92
2019-04-01T18:10:13.480Z,101554.72
2019-04-01T18:12:41.817Z,101553.66
2019-04-01T18:15:10.135Z,101552.50
2019-04-01T18:17:39.211Z,101545.67
2019-04-01T18:20:07.964Z,101547.66
2019-04-01T18:22:36.293Z,101549.09
2019-04-01T18:25:05.698Z,101542.16
2019-04-01T18:27:34.798Z,101540.61
2019-04-01T18:30:03.680Z,101537.70
2019-04-01T18:32:32.071Z,101542.66
2019-04-01T18:35:04.012Z,101539.19
2019-04-01T18:37:31.312Z,101534.63
2019-04-01T18:39:59.720Z,101537.14
2019-04-01T18:42:28.021Z,101541.27
2019-04-01T18:44:56.323Z,101540.84
2019-04-01T18:47:24.701Z,101540.08
2019-04-01T18:49:52.989Z,101540.73
2019-04-01T18:52:21.431Z,101529.50
2019-04-01T18:54:49.739Z,101535.22
2019-04-01T18:57:18.069Z,101529.56
2019-04-01T18:59:46.394Z,101533.95
2019-04-01T19:02:14.688Z,101532.18
2019-04-01T19:04:43.093Z,101531.41
2019-04-01T19:07:11.450Z,101528.22
2019-04-01T19:09:39.727Z,101531.52
2019-04-01T19:12:08.110Z,101524.28
2019-04-01T19:14:36.439Z,101525.96
2019-04-01T19:17:04.728Z,101525.48
2019-04-01T19:19:32.999Z,101522.26
2019-04-01T19:22:01.541Z,101523.64
2019-04-01T19:24:29.873Z,101518.27
2019-04-01T19:26:58.260Z,101516.72
2019-04-01T19:29:27.429Z,101511.67
2019-04-01T19:31:55.711Z,101513.62
2019-04-01T19:34:23.997Z,101504.97
2019-04-01T19:36:52.436Z,101506.05
2019-04-01T19:39:20.766Z,101501.77
2019-04-01T19:41:49.412Z,101495.84
2019-04-01T19:44:17.762Z,101505.03
2019-04-01T19:46:46.035Z,101496.74
2019-04-01T19:49:14.310Z,101498.13
2019-04-01T19:51:42.970Z,101489.80
2019-04-01T19:54:11.280Z,101484.48
2019-04-01T19:56:39.553Z,101488.83
2019-04-01T19:59:08.834Z,101483.23
2019-04-01T20:01:37.182Z,101478.11
2019-04-01T20:04:05.456Z,101473.00
2019-04-01T20:06:33.903Z,101476.25
2019-04-01T20:09:02.243Z,101470.63
2019-04-01T20:11:30.516Z,101469.56
2019-04-01T20:13:58.851Z,101462.85
2019-04-01T20:16:27.120Z,101465.84
2019-04-01T20:18:55.419Z,101460.47
2019-04-01T20:21:23.744Z,101463.17
2019-04-01T20:23:54.825Z,101455.67
2019-04-01T20:26:22.141Z,101456.50
2019-04-01T20:28:50.432Z,101451.66
2019-04-01T20:31:18.713Z,101446.79
2019-04-01T20:33:49.141Z,101444.64
2019-04-01T20:36:27.919Z,101447.09
2019-04-01T20:38:49.055Z,101441.97
2019-04-01T20:41:17.460Z,101444.98
2019-04-01T20:43:45.898Z,101436.88
2019-04-01T20:46:14.181Z,101435.02
2019-04-01T20:48:42.496Z,101430.44
2019-04-01T20:51:11.851Z,101428.86
2019-04-01T20:53:40.124Z,101419.71
2019-04-01T20:56:08.425Z,101418.67
2019-04-01T20:58:37.710Z,101415.69
2019-04-01T21:01:07.177Z,101409.76
2019-04-01T21:03:35.770Z,101408.72
2019-04-01T21:06:04.197Z,101396.86
2019-04-01T21:08:32.553Z,101395.27
2019-04-01T21:11:00.818Z,101394.45
2019-04-01T21:13:29.148Z,101387.98
2019-04-01T21:15:59.030Z,101381.80
2019-04-01T21:18:27.501Z,101385.58
2019-04-01T21:20:55.836Z,101380.47
2019-04-01T21:23:24.166Z,101377.22
2019-04-01T21:25:52.538Z,101374.01
2019-04-01T21:28:22.907Z,101368.08
2019-04-01T21:30:50.939Z,101368.33
2019-04-01T21:33:19.979Z,101367.00
2019-04-01T21:35:48.274Z,101362.71
2019-04-01T21:38:16.585Z,101361.38
2019-04-01T21:40:44.976Z,101352.73
2019-04-01T21:43:13.278Z,101351.10
2019-04-01T21:45:41.603Z,101347.34
2019-04-01T21:48:10.558Z,101342.78
2019-04-01T21:50:40.260Z,101337.12
2019-04-01T21:53:08.539Z,101337.12
2019-04-01T21:55:36.887Z,101327.96
2019-04-01T21:58:05.198Z,101316.40
2019-04-01T22:00:53.613Z,101322.59
2019-04-01T22:03:21.957Z,101317.75
2019-04-01T22:05:51.495Z,101308.88
2019-04-01T22:08:22.349Z,101302.66
2019-04-01T22:10:50.617Z,101302.66
2019-04-01T22:13:18.934Z,101299.45
2019-04-01T22:15:47.207Z,101293.52
2019-04-01T22:18:15.957Z,101287.06
2019-04-01T22:20:44.243Z,101288.96
2019-04-01T22:23:12.551Z,101277.91
2019-04-01T22:25:40.844Z,101277.91
2019-04-01T22:28:09.124Z,101280.33
2019-04-01T22:30:37.555Z,101271.18
2019-04-01T22:33:05.824Z,101268.77
2019-04-01T22:35:39.087Z,101265.00
2019-04-01T22:38:06.207Z,101265.28
2019-04-01T22:40:34.393Z,101260.16
2019-04-01T22:43:02.653Z,101251.81
2019-04-01T22:45:30.976Z,101248.84
2019-04-01T22:47:59.243Z,101241.31
2019-04-01T22:50:27.532Z,101242.66
2019-04-01T22:52:55.955Z,101236.48
2019-04-01T22:55:24.279Z,101232.96
2019-04-01T22:57:53.314Z,101233.80
2019-04-01T23:00:22.090Z,101226.52
2019-04-01T23:02:50.398Z,101217.13
2019-04-01T23:05:19.566Z,101217.13
2019-04-01T23:07:47.842Z,101219.53
2019-04-01T23:10:16.229Z,101218.19
2019-04-01T23:12:45.211Z,101225.20
2019-04-01T23:15:15.131Z,101214.95
2019-04-01T23:17:44.364Z,101213.64
2019-04-01T23:20:12.716Z,101207.15
2019-04-01T23:22:41.073Z,101199.10
2019-04-01T23:25:09.373Z,101199.89
2019-04-01T23:27:38.515Z,101196.66
2019-04-01T23:30:08.851Z,101200.97
2019-04-01T23:32:37.161Z,101182.67
2019-04-01T23:35:06.505Z,101188.06
2019-04-01T23:37:34.884Z,101188.06
2019-04-01T23:40:03.504Z,101184.81
2019-04-01T23:42:32.113Z,101182.95
2019-04-01T23:45:01.150Z,101164.66
2019-04-01T23:47:30.455Z,101165.73
2019-04-01T23:49:59.095Z,101171.66
2019-04-01T23:52:27.394Z,101167.62
2019-04-01T23:54:55.753Z,101167.62
2019-04-01T23:57:24.224Z,101141.77
2019-04-01T23:59:53.463Z,101141.50
